createdAt,value
2017-10-16T00:00:51.651Z,18.33
2017-10-16T00:03:19.177Z,20.60
2017-10-16T00:05:46.697Z,16.57
2017-10-16T00:08:14.251Z,21.30
2017-10-16T00:10:41.757Z,19.90
2017-10-16T00:13:09.264Z,16.20
2017-10-16T00:15:36.812Z,17.53
2017-10-16T00:18:04.319Z,22.40
2017-10-16T00:20:32.259Z,22.07
2017-10-16T00:22:59.770Z,20.80
2017-10-16T00:25:27.711Z,20.00
2017-10-16T00:27:55.239Z,18.00
2017-10-16T00:30:23.146Z,17.97
2017-10-16T00:32:50.676Z,19.63
2017-10-16T00:35:18.202Z,22.27
2017-10-16T00:37:45.739Z,19.23
2017-10-16T00:40:13.271Z,18.17
2017-10-16T00:42:40.824Z,17.73
2017-10-16T00:45:08.367Z,20.83
2017-10-16T00:47:35.869Z,17.03
2017-10-16T00:50:03.400Z,19.80
2017-10-16T00:52:31.187Z,18.00
2017-10-16T00:54:58.847Z,19.30
2017-10-16T00:57:26.371Z,18.07
2017-10-16T00:59:53.925Z,17.47
2017-10-16T01:02:21.431Z,19.10
2017-10-16T01:04:49.007Z,21.40
2017-10-16T01:07:16.547Z,20.13
2017-10-16T01:09:44.056Z,22.50
2017-10-16T01:12:11.980Z,19.33
2017-10-16T01:14:39.505Z,18.60
2017-10-16T01:17:07.043Z,17.10
2017-10-16T01:19:34.563Z,18.93
2017-10-16T01:22:02.086Z,18.97
2017-10-16T01:24:29.640Z,22.40
2017-10-16T01:26:57.197Z,19.30
2017-10-16T01:29:24.754Z,18.73
2017-10-16T01:31:52.282Z,20.00
2017-10-16T01:34:19.823Z,18.97
2017-10-16T01:36:47.372Z,17.97
2017-10-16T01:39:14.929Z,18.70
2017-10-16T01:41:42.852Z,21.40
2017-10-16T01:44:10.382Z,23.10
2017-10-16T01:46:38.306Z,20.57
2017-10-16T01:49:05.865Z,20.33
2017-10-16T01:51:33.414Z,18.90
2017-10-16T01:54:01.345Z,20.27
2017-10-16T01:56:28.927Z,18.27
2017-10-16T01:58:56.446Z,26.40
2017-10-16T02:01:24.000Z,18.00
2017-10-16T02:03:51.543Z,21.27
2017-10-16T02:06:19.099Z,22.23
2017-10-16T02:08:46.623Z,19.23
2017-10-16T02:11:14.160Z,16.77
2017-10-16T02:13:41.692Z,21.20
2017-10-16T02:16:09.224Z,21.27
2017-10-16T02:18:36.748Z,19.50
2017-10-16T02:21:04.301Z,18.13
2017-10-16T02:23:31.977Z,23.33
2017-10-16T02:25:59.564Z,19.30
2017-10-16T02:28:27.075Z,19.60
2017-10-16T02:30:54.663Z,20.33
2017-10-16T02:33:22.190Z,17.60
2017-10-16T02:35:49.719Z,19.80
2017-10-16T02:38:17.628Z,17.83
2017-10-16T02:40:45.169Z,16.70
2017-10-16T02:43:12.684Z,17.30
2017-10-16T02:45:40.205Z,18.77
2017-10-16T02:48:07.748Z,21.40
2017-10-16T02:50:35.274Z,22.07
2017-10-16T02:53:02.826Z,17.60
2017-10-16T02:55:30.742Z,17.20
2017-10-16T02:57:58.340Z,20.10
2017-10-16T03:00:25.875Z,18.23
2017-10-16T03:02:53.387Z,19.77
2017-10-16T03:05:20.935Z,16.90
2017-10-16T03:07:48.454Z,18.50
2017-10-16T03:10:16.048Z,18.50
2017-10-16T03:12:43.551Z,19.20
2017-10-16T03:15:11.103Z,20.73
2017-10-16T03:17:38.676Z,18.93
2017-10-16T03:20:06.207Z,19.30
2017-10-16T03:22:33.751Z,16.73
2017-10-16T03:25:01.285Z,19.60
2017-10-16T03:27:28.849Z,18.50
2017-10-16T03:29:56.380Z,17.70
2017-10-16T03:32:27.216Z,19.60
2017-10-16T03:34:54.781Z,17.43
2017-10-16T03:37:22.320Z,23.90
2017-10-16T03:39:49.874Z,17.40
2017-10-16T03:42:17.405Z,18.53
2017-10-16T03:44:44.966Z,18.57
2017-10-16T03:47:12.513Z,19.90
2017-10-16T03:49:40.078Z,21.50
2017-10-16T03:52:07.648Z,19.80
2017-10-16T03:54:35.190Z,16.73
2017-10-16T03:57:03.148Z,19.30
2017-10-16T03:59:30.696Z,17.53
2017-10-16T04:01:58.263Z,18.83
2017-10-16T04:04:25.798Z,19.10
2017-10-16T04:06:53.770Z,20.17
2017-10-16T04:09:21.326Z,17.67
2017-10-16T04:11:48.865Z,18.10
2017-10-16T04:14:16.409Z,17.17
2017-10-16T04:16:43.939Z,19.27
2017-10-16T04:19:11.519Z,21.50
2017-10-16T04:21:39.487Z,18.10
2017-10-16T04:24:07.073Z,20.10
2017-10-16T04:26:35.031Z,22.10
2017-10-16T04:29:02.577Z,19.87
2017-10-16T04:31:30.135Z,18.23
2017-10-16T04:33:57.678Z,24.63
2017-10-16T04:36:25.236Z,17.03
2017-10-16T04:38:52.771Z,18.70
2017-10-16T04:41:20.384Z,18.90
2017-10-16T04:43:48.324Z,19.03
2017-10-16T04:46:15.857Z,22.00
2017-10-16T04:48:43.420Z,18.10
2017-10-16T04:51:11.349Z,15.93
2017-10-16T04:53:38.917Z,21.33
2017-10-16T04:56:06.450Z,15.83
2017-10-16T04:58:33.997Z,22.80
2017-10-16T05:01:01.548Z,17.80
2017-10-16T05:03:29.078Z,16.93
2017-10-16T05:05:56.620Z,18.27
2017-10-16T05:08:24.558Z,16.13
2017-10-16T05:10:52.105Z,18.20
2017-10-16T05:13:19.633Z,16.13
2017-10-16T05:15:47.187Z,19.37
2017-10-16T05:18:14.717Z,20.77
2017-10-16T05:20:42.268Z,16.93
2017-10-16T05:23:10.210Z,18.33
2017-10-16T05:25:37.732Z,17.73
2017-10-16T05:28:05.305Z,22.10
2017-10-16T05:30:32.885Z,18.80
2017-10-16T05:33:00.605Z,18.77
2017-10-16T05:35:28.167Z,20.60
2017-10-16T05:37:55.801Z,16.80
2017-10-16T05:40:23.351Z,19.23
2017-10-16T05:42:51.282Z,17.40
2017-10-16T05:45:18.836Z,21.37
2017-10-16T05:47:46.364Z,17.33
2017-10-16T05:50:13.926Z,18.20
2017-10-16T05:52:41.460Z,18.83
2017-10-16T05:55:09.003Z,19.67
2017-10-16T05:57:36.569Z,17.60
2017-10-16T06:00:04.594Z,19.77
2017-10-16T06:02:32.161Z,18.30
2017-10-16T06:04:59.684Z,17.47
2017-10-16T06:07:27.217Z,20.63
2017-10-16T06:09:54.763Z,18.40
2017-10-16T06:12:22.298Z,18.30
2017-10-16T06:14:50.234Z,18.00
2017-10-16T06:17:17.770Z,18.37
2017-10-16T06:19:45.314Z,17.47
2017-10-16T06:22:12.851Z,17.47
2017-10-16T06:24:40.421Z,17.80
2017-10-16T06:27:07.948Z,20.87
2017-10-16T06:29:35.865Z,17.10
2017-10-16T06:32:03.416Z,18.13
2017-10-16T06:34:30.968Z,18.47
2017-10-16T06:36:58.912Z,19.07
2017-10-16T06:39:26.442Z,19.97
2017-10-16T06:41:53.990Z,17.77
2017-10-16T06:44:21.907Z,18.87
2017-10-16T06:46:49.428Z,16.97
2017-10-16T06:49:16.965Z,20.33
2017-10-16T06:51:44.498Z,17.73
2017-10-16T06:54:12.042Z,15.83
2017-10-16T06:56:39.981Z,15.13
2017-10-16T06:59:07.509Z,19.23
2017-10-16T07:01:35.450Z,16.83
2017-10-16T07:04:02.973Z,17.87
2017-10-16T07:06:30.542Z,15.93
2017-10-16T07:08:58.070Z,15.50
2017-10-16T07:11:25.600Z,17.20
2017-10-16T07:13:53.157Z,19.57
2017-10-16T07:16:20.692Z,20.27
2017-10-16T07:18:48.234Z,20.87
2017-10-16T07:21:15.759Z,17.20
2017-10-16T07:23:43.714Z,17.60
2017-10-16T07:26:11.227Z,17.27
2017-10-16T07:28:38.748Z,18.30
2017-10-16T07:31:06.300Z,21.37
2017-10-16T07:33:33.824Z,17.83
2017-10-16T07:36:01.833Z,20.97
2017-10-16T07:38:29.418Z,18.70
2017-10-16T07:40:56.981Z,24.67
2017-10-16T07:43:24.503Z,27.40
2017-10-16T07:45:52.020Z,23.97
2017-10-16T07:48:19.557Z,20.40
2017-10-16T07:50:47.474Z,21.90
2017-10-16T07:53:15.019Z,20.27
2017-10-16T07:55:42.936Z,21.13
2017-10-16T07:58:10.490Z,15.70
2017-10-16T08:00:38.028Z,18.87
2017-10-16T08:03:05.990Z,18.60
2017-10-16T08:05:33.528Z,14.37
2017-10-16T08:08:01.061Z,14.87
2017-10-16T08:10:29.019Z,16.10
2017-10-16T08:12:56.548Z,17.50
2017-10-16T08:15:24.090Z,15.07
2017-10-16T08:17:52.004Z,15.40
2017-10-16T08:20:19.554Z,13.63
2017-10-16T08:22:47.084Z,17.07
2017-10-16T08:25:15.374Z,15.00
2017-10-16T08:27:42.893Z,13.93
2017-10-16T08:30:10.453Z,14.23
2017-10-16T08:32:37.974Z,16.60
2017-10-16T08:35:05.501Z,19.87
2017-10-16T08:37:33.040Z,13.47
2017-10-16T08:40:00.964Z,12.80
2017-10-16T08:42:28.500Z,15.83
2017-10-16T08:44:56.426Z,17.07
2017-10-16T08:47:23.981Z,13.10
2017-10-16T08:49:51.509Z,14.80
2017-10-16T08:52:19.046Z,14.43
2017-10-16T08:54:46.594Z,15.13
2017-10-16T08:57:14.124Z,15.63
2017-10-16T08:59:41.670Z,12.83
2017-10-16T09:02:09.200Z,11.70
2017-10-16T09:04:36.801Z,11.67
2017-10-16T09:07:04.331Z,15.17
2017-10-16T09:09:32.255Z,17.20
2017-10-16T09:11:59.797Z,11.43
2017-10-16T09:14:27.350Z,11.13
2017-10-16T09:16:55.295Z,13.90
2017-10-16T09:19:23.007Z,12.83
2017-10-16T09:21:50.644Z,12.77
2017-10-16T09:24:18.189Z,12.63
2017-10-16T09:26:45.722Z,14.67
2017-10-16T09:29:13.673Z,12.07
2017-10-16T09:31:41.198Z,12.90
2017-10-16T09:34:08.748Z,13.83
2017-10-16T09:36:36.681Z,14.27
2017-10-16T09:39:04.252Z,12.37
2017-10-16T09:41:31.775Z,11.37
2017-10-16T09:43:59.693Z,15.20
2017-10-16T09:46:27.230Z,18.73
2017-10-16T09:48:54.758Z,15.00
2017-10-16T09:51:22.320Z,23.60
2017-10-16T09:53:49.838Z,21.00
2017-10-16T09:56:17.778Z,13.17
2017-10-16T09:58:45.570Z,12.53
2017-10-16T10:01:13.129Z,12.10
2017-10-16T10:03:40.665Z,11.87
2017-10-16T10:06:08.190Z,12.20
2017-10-16T10:08:35.756Z,10.97
2017-10-16T10:11:03.280Z,14.23
2017-10-16T10:13:30.813Z,12.63
2017-10-16T10:15:58.757Z,14.23
2017-10-16T10:18:26.345Z,12.60
2017-10-16T10:20:53.873Z,12.80
2017-10-16T10:23:21.405Z,12.07
2017-10-16T10:25:49.333Z,11.90
2017-10-16T10:28:16.863Z,14.50
2017-10-16T10:30:44.429Z,12.77
2017-10-16T10:33:12.353Z,16.03
2017-10-16T10:35:39.893Z,12.13
2017-10-16T10:38:07.828Z,13.47
2017-10-16T10:40:35.394Z,12.20
2017-10-16T10:43:02.922Z,13.37
2017-10-16T10:45:30.454Z,11.90
2017-10-16T10:47:58.159Z,11.60
2017-10-16T10:50:26.080Z,16.93
2017-10-16T10:52:53.623Z,15.50
2017-10-16T10:55:21.146Z,13.90
2017-10-16T10:57:48.685Z,14.83
2017-10-16T11:00:16.215Z,15.87
2017-10-16T11:02:43.801Z,13.63
2017-10-16T11:05:11.322Z,12.40
2017-10-16T11:07:38.861Z,13.57
2017-10-16T11:10:06.537Z,12.70
2017-10-16T11:12:34.065Z,11.30
2017-10-16T11:15:01.997Z,13.37
2017-10-16T11:17:29.524Z,10.43
2017-10-16T11:19:57.473Z,12.83
2017-10-16T11:22:24.997Z,11.80
2017-10-16T11:24:52.520Z,11.67
2017-10-16T11:27:20.079Z,12.90
2017-10-16T11:29:47.615Z,15.47
2017-10-16T11:32:15.184Z,12.80
2017-10-16T11:34:42.714Z,15.17
2017-10-16T11:37:10.246Z,12.33
2017-10-16T11:39:37.787Z,12.33
2017-10-16T11:42:05.697Z,14.37
2017-10-16T11:44:33.225Z,12.40
2017-10-16T11:47:01.146Z,11.70
2017-10-16T11:49:28.706Z,12.83
2017-10-16T11:51:56.230Z,13.63
2017-10-16T11:54:23.762Z,11.93
2017-10-16T11:56:51.334Z,14.13
2017-10-16T11:59:18.861Z,12.13
2017-10-16T12:01:46.783Z,12.13
2017-10-16T12:04:14.310Z,14.50
2017-10-16T12:06:42.274Z,13.83
2017-10-16T12:09:09.797Z,10.93
2017-10-16T12:11:37.337Z,11.17
2017-10-16T12:14:05.305Z,14.63
2017-10-16T12:16:33.237Z,10.43
2017-10-16T12:19:00.780Z,11.43
2017-10-16T12:21:28.702Z,12.80
2017-10-16T12:23:56.266Z,14.67
2017-10-16T12:26:23.797Z,12.47
2017-10-16T12:28:51.726Z,15.03
2017-10-16T12:31:19.269Z,11.33
2017-10-16T12:33:46.821Z,13.97
2017-10-16T12:36:14.768Z,12.20
2017-10-16T12:38:42.292Z,11.00
2017-10-16T12:41:10.074Z,12.23
2017-10-16T12:43:37.592Z,10.20
2017-10-16T12:46:05.166Z,14.33
2017-10-16T12:48:32.719Z,12.60
2017-10-16T12:51:00.237Z,12.17
2017-10-16T12:53:27.798Z,16.13
2017-10-16T12:55:55.720Z,12.67
2017-10-16T12:58:23.264Z,11.67
2017-10-16T13:00:51.184Z,16.13
2017-10-16T13:03:18.740Z,13.90
2017-10-16T13:05:46.282Z,11.83
2017-10-16T13:08:14.211Z,12.50
2017-10-16T13:10:41.810Z,14.33
2017-10-16T13:13:09.336Z,15.33
2017-10-16T13:15:36.887Z,14.13
2017-10-16T13:18:04.424Z,12.13
2017-10-16T13:20:32.368Z,14.20
2017-10-16T13:22:59.903Z,13.90
2017-10-16T13:25:27.821Z,13.13
2017-10-16T13:27:55.351Z,12.20
2017-10-16T13:30:23.273Z,14.07
2017-10-16T13:32:50.851Z,14.03
2017-10-16T13:35:18.377Z,11.23
2017-10-16T13:37:46.298Z,10.53
2017-10-16T13:40:13.866Z,12.90
2017-10-16T13:42:41.857Z,14.17
2017-10-16T13:45:09.402Z,12.47
2017-10-16T13:47:36.925Z,12.90
2017-10-16T13:50:04.493Z,10.87
2017-10-16T13:52:32.031Z,13.87
2017-10-16T13:54:59.573Z,10.70
2017-10-16T13:57:27.130Z,10.13
2017-10-16T13:59:54.648Z,11.13
2017-10-16T14:02:22.461Z,9.60
2017-10-16T14:04:50.400Z,11.17
2017-10-16T14:07:20.611Z,11.13
2017-10-16T14:09:48.166Z,10.60
2017-10-16T14:12:15.769Z,14.47
2017-10-16T14:14:43.289Z,10.97
2017-10-16T14:17:10.827Z,14.03
2017-10-16T14:19:38.372Z,13.73
2017-10-16T14:22:05.895Z,10.77
2017-10-16T14:24:33.442Z,13.40
2017-10-16T14:27:00.978Z,12.53
2017-10-16T14:29:28.533Z,17.23
2017-10-16T14:31:56.465Z,14.20
2017-10-16T14:34:24.014Z,13.20
2017-10-16T14:36:51.542Z,12.30
2017-10-16T14:39:19.100Z,11.60
2017-10-16T14:41:46.619Z,10.97
2017-10-16T14:44:14.164Z,16.90
2017-10-16T14:46:42.107Z,13.70
2017-10-16T14:49:09.633Z,9.80
2017-10-16T14:51:37.182Z,13.90
2017-10-16T14:54:04.716Z,16.60
2017-10-16T14:56:32.278Z,10.57
2017-10-16T14:58:59.795Z,14.17
2017-10-16T15:01:27.312Z,12.13
2017-10-16T15:03:54.849Z,13.47
2017-10-16T15:06:22.775Z,14.63
2017-10-16T15:08:50.334Z,16.00
2017-10-16T15:11:17.851Z,12.40
2017-10-16T15:13:45.410Z,14.10
2017-10-16T15:16:13.852Z,11.93
2017-10-16T15:18:42.005Z,14.93
2017-10-16T15:21:09.663Z,13.37
2017-10-16T15:23:37.226Z,11.07
2017-10-16T15:26:04.780Z,13.10
2017-10-16T15:28:32.318Z,13.80
2017-10-16T15:31:00.268Z,11.50
2017-10-16T15:33:27.796Z,13.03
2017-10-16T15:35:55.378Z,13.00
2017-10-16T15:38:22.938Z,12.40
2017-10-16T15:40:50.486Z,14.80
2017-10-16T15:43:18.016Z,15.47
2017-10-16T15:45:45.573Z,13.40
2017-10-16T15:48:13.099Z,12.03
2017-10-16T15:50:40.634Z,11.00
2017-10-16T15:53:08.171Z,12.10
2017-10-16T15:55:35.712Z,10.90
2017-10-16T15:58:03.656Z,14.20
2017-10-16T16:00:31.185Z,16.20
2017-10-16T16:02:58.741Z,8.97
2017-10-16T16:05:26.307Z,11.60
2017-10-16T16:07:54.322Z,10.90
2017-10-16T16:10:21.866Z,11.17
2017-10-16T16:12:49.397Z,11.13
2017-10-16T16:15:16.916Z,11.70
2017-10-16T16:17:44.469Z,10.90
2017-10-16T16:20:12.385Z,10.97
2017-10-16T16:22:39.929Z,11.00
2017-10-16T16:25:07.461Z,12.87
2017-10-16T16:27:34.997Z,11.03
2017-10-16T16:30:02.528Z,10.80
2017-10-16T16:32:30.478Z,12.60
2017-10-16T16:34:58.011Z,12.70
2017-10-16T16:37:25.548Z,14.00
2017-10-16T16:39:53.490Z,13.63
2017-10-16T16:42:21.028Z,11.13
2017-10-16T16:44:48.589Z,12.33
2017-10-16T16:47:16.504Z,14.00
2017-10-16T16:49:44.048Z,11.50
2017-10-16T16:52:11.588Z,11.23
2017-10-16T16:54:39.125Z,12.20
2017-10-16T16:57:06.653Z,13.63
2017-10-16T16:59:34.209Z,15.13
2017-10-16T17:02:02.125Z,13.53
2017-10-16T17:04:29.688Z,11.00
2017-10-16T17:06:57.215Z,11.40
2017-10-16T17:09:24.815Z,16.23
2017-10-16T17:11:52.747Z,13.43
2017-10-16T17:14:20.285Z,10.80
2017-10-16T17:16:48.005Z,15.20
2017-10-16T17:19:15.564Z,11.70
2017-10-16T17:21:43.086Z,16.80
2017-10-16T17:24:11.037Z,13.07
2017-10-16T17:26:38.578Z,18.10
2017-10-16T17:29:06.109Z,12.13
2017-10-16T17:31:33.667Z,12.67
2017-10-16T17:34:01.585Z,14.40
2017-10-16T17:36:29.177Z,17.83
2017-10-16T17:38:56.704Z,13.50
2017-10-16T17:41:24.657Z,17.20
2017-10-16T17:43:52.194Z,10.53
2017-10-16T17:46:19.757Z,12.70
2017-10-16T17:48:47.294Z,14.20
2017-10-16T17:51:15.255Z,12.00
2017-10-16T17:53:42.792Z,13.80
2017-10-16T17:56:10.358Z,12.00
2017-10-16T17:58:37.889Z,15.70
2017-10-16T18:01:05.438Z,13.13
2017-10-16T18:03:32.963Z,16.10
2017-10-16T18:06:00.508Z,12.70
2017-10-16T18:08:28.431Z,17.70
2017-10-16T18:10:56.013Z,16.30
2017-10-16T18:13:23.543Z,14.20
2017-10-16T18:15:51.600Z,12.70
2017-10-16T18:18:19.145Z,12.17
2017-10-16T18:20:46.745Z,17.20
2017-10-16T18:23:14.337Z,16.43
2017-10-16T18:25:41.922Z,16.23
2017-10-16T18:28:09.523Z,16.20
2017-10-16T18:30:37.053Z,14.90
2017-10-16T18:33:04.996Z,19.93
2017-10-16T18:35:32.535Z,12.80
2017-10-16T18:38:00.094Z,14.90
2017-10-16T18:40:27.650Z,11.43
2017-10-16T18:42:55.588Z,13.47
2017-10-16T18:45:23.133Z,15.10
2017-10-16T18:47:50.682Z,14.77
2017-10-16T18:50:18.605Z,12.13
2017-10-16T18:52:46.234Z,12.23
2017-10-16T18:55:13.769Z,12.70
2017-10-16T18:57:41.324Z,12.03
2017-10-16T19:00:08.905Z,14.00
2017-10-16T19:02:36.502Z,15.77
2017-10-16T19:05:04.430Z,13.57
2017-10-16T19:07:32.071Z,17.27
2017-10-16T19:09:59.654Z,13.27
2017-10-16T19:12:27.235Z,16.27
2017-10-16T19:14:54.899Z,13.90
2017-10-16T19:17:22.863Z,13.10
2017-10-16T19:19:50.528Z,14.80
2017-10-16T19:22:18.121Z,16.87
2017-10-16T19:24:46.119Z,16.57
2017-10-16T19:27:13.701Z,18.03
2017-10-16T19:29:41.316Z,15.80
2017-10-16T19:32:08.980Z,15.73
2017-10-16T19:34:36.612Z,13.37
2017-10-16T19:37:04.321Z,13.87
2017-10-16T19:39:31.946Z,15.70
2017-10-16T19:41:59.541Z,16.50
2017-10-16T19:44:27.156Z,14.60
2017-10-16T19:46:54.750Z,17.03
2017-10-16T19:49:22.758Z,15.47
2017-10-16T19:51:50.313Z,14.20
2017-10-16T19:54:18.369Z,16.73
2017-10-16T19:56:45.917Z,13.90
2017-10-16T19:59:13.571Z,17.30
2017-10-16T20:01:41.105Z,17.43
2017-10-16T20:04:08.668Z,12.90
2017-10-16T20:06:36.217Z,14.03
2017-10-16T20:09:03.805Z,13.33
2017-10-16T20:11:31.405Z,20.03
2017-10-16T20:13:59.344Z,15.63
2017-10-16T20:16:26.921Z,14.70
2017-10-16T20:18:54.496Z,14.37
2017-10-16T20:21:22.094Z,13.80
2017-10-16T20:23:50.168Z,15.13
2017-10-16T20:26:17.757Z,13.47
2017-10-16T20:28:45.795Z,16.40
2017-10-16T20:31:13.373Z,14.50
2017-10-16T20:33:40.988Z,14.10
2017-10-16T20:36:08.521Z,19.80
2017-10-16T20:38:36.263Z,13.93
2017-10-16T20:41:03.793Z,14.30
2017-10-16T20:43:31.491Z,13.70
2017-10-16T20:45:59.416Z,14.20
2017-10-16T20:48:27.237Z,13.70
2017-10-16T20:50:54.762Z,15.07
2017-10-16T20:53:22.289Z,13.63
2017-10-16T20:55:50.235Z,14.90
2017-10-16T20:58:17.874Z,19.77
2017-10-16T21:00:45.411Z,15.27
2017-10-16T21:03:12.942Z,14.47
2017-10-16T21:05:40.501Z,13.60
2017-10-16T21:08:08.040Z,15.00
2017-10-16T21:10:35.587Z,13.57
2017-10-16T21:13:03.153Z,13.37
2017-10-16T21:15:30.686Z,13.60
2017-10-16T21:17:58.241Z,17.77
2017-10-16T21:20:25.791Z,15.20
2017-10-16T21:22:53.752Z,15.60
2017-10-16T21:25:21.291Z,16.07
2017-10-16T21:27:48.820Z,14.30
2017-10-16T21:30:16.803Z,15.93
2017-10-16T21:32:44.736Z,13.10
2017-10-16T21:35:12.299Z,13.87
2017-10-16T21:37:39.829Z,14.60
2017-10-16T21:40:07.782Z,16.33
2017-10-16T21:42:35.322Z,14.93
2017-10-16T21:45:02.874Z,14.20
2017-10-16T21:47:30.424Z,13.30
2017-10-16T21:49:58.340Z,15.97
2017-10-16T21:52:25.876Z,15.07
2017-10-16T21:54:53.805Z,15.47
2017-10-16T21:57:21.364Z,17.47
2017-10-16T21:59:48.893Z,15.50
2017-10-16T22:02:16.823Z,20.37
2017-10-16T22:04:44.375Z,17.40
2017-10-16T22:07:11.902Z,15.40
2017-10-16T22:09:39.463Z,17.50
2017-10-16T22:12:07.024Z,14.50
2017-10-16T22:14:34.596Z,16.07
2017-10-16T22:17:02.132Z,15.40
2017-10-16T22:19:29.671Z,15.50
2017-10-16T22:21:57.620Z,16.70
2017-10-16T22:24:25.167Z,17.87
2017-10-16T22:26:53.632Z,16.60
2017-10-16T22:29:21.171Z,13.50
2017-10-16T22:31:48.732Z,15.47
2017-10-16T22:34:16.271Z,14.53
2017-10-16T22:36:43.809Z,16.20
2017-10-16T22:39:11.749Z,13.10
2017-10-16T22:41:39.291Z,15.70
2017-10-16T22:44:06.849Z,20.40
2017-10-16T22:46:34.388Z,15.20
2017-10-16T22:49:02.364Z,13.13
2017-10-16T22:51:29.889Z,17.60
2017-10-16T22:54:17.104Z,15.80
2017-10-16T22:56:44.641Z,17.07
2017-10-16T22:59:12.175Z,17.90
2017-10-16T23:01:39.724Z,14.57
2017-10-16T23:04:07.252Z,21.50
2017-10-16T23:06:34.814Z,14.80
2017-10-16T23:09:02.355Z,15.30
2017-10-16T23:11:29.890Z,16.13
2017-10-16T23:13:57.824Z,16.80
2017-10-16T23:16:25.370Z,16.27
2017-10-16T23:18:52.962Z,15.00
2017-10-16T23:21:20.500Z,14.60
2017-10-16T23:23:48.038Z,17.40
2017-10-16T23:26:15.580Z,20.50
2017-10-16T23:28:43.118Z,16.83
2017-10-16T23:31:10.668Z,14.07
2017-10-16T23:33:38.602Z,14.60
2017-10-16T23:36:06.205Z,13.90
2017-10-16T23:38:37.458Z,17.27
2017-10-16T23:41:05.000Z,15.40
2017-10-16T23:43:32.571Z,15.17
2017-10-16T23:46:00.118Z,15.70
2017-10-16T23:48:27.661Z,17.80
2017-10-16T23:50:55.574Z,14.80
2017-10-16T23:53:23.123Z,18.60
2017-10-16T23:55:51.032Z,17.90
2017-10-16T23:58:18.550Z,17.17
